Accord, Massachusetts
Current Conditions -  °F | °C
As of 3:54 PM on Sunday 23 Nov 2014 (Local Time) from KBOS Reporting Station
Overcast Overcast  
Wind Chill: 57°   Ceiling: 18000
Heat Index: 57°   Visibility: 10mi
Dew Point: 37°   Wind: 3mph
Humidity: 47%   Direction: 240°WSW
Pressure: 30.11"   Gusts: NA
Location:  42.17°N, 70.88°W
Report Text: KBOS 232054Z 24003KT 10SM SCT060 BKN180 OVC220 14/03 A3011 RMK AO2 SLP195 T01390028 53001
Loading
Personal Weather Stations






























Interactive Weather Map New forecast layout! Learn more

10-Day Weather Forecast

Advertisements
Track Severe Weather on mobile